^^

..:: Storico WU ::..




Lo storico viene creato da WUnderground con i dati che la stazione Meteomincio invia al loro server. L' aggiornamento viene fatto ogni 5 minuti circa, tuttavia possono esserci intervalli pi¨ ampi a causa di errori, interruzioni di servizio o problemi nell' invio tramite FTP.


Storico stazione MeteoMincio
Giorno Sommario per Marzo 07, 2022 Unità:  Inglese    Metrico   Entrambi
Giorno Settimana Mese Anno
  Max: Min: Media:
Temperatura: 51.4 °F 26.2 °F 39.4 °F
Dew Point: 31.5 °F 21.7 °F 27.7 °F
Umidità: 83.4% 44.6% 65%
Velocità vento: 7.9mph 0mph 2.3mph
Raffica: 12mph - -
Direzione- - South
Pressione: 30.2 in 30 in -
Precipitazioni: 0 in    
 
 
Tabulato Dati per Marzo 07, 2022
Ora Temperatura Dew Point Pressione Direzione Velocità vento Raffica Umidità Intensità pioggia (oraria) Info solare Situazione
00:04 34.3 °F 26.4 °F 30.1 in Calm     72.7% 0 in 0 W/m2
00:09 34.2 °F 26.2 °F 30.1 in Calm     72.4% 0 in 0 W/m2
00:14 33.8 °F 26.1 °F 30.1 in Calm     73% 0 in 0 W/m2
00:19 33.4 °F 25.7 °F 30.1 in Calm     73% 0 in 0 W/m2
00:24 33.1 °F 25.3 °F 30.1 in Calm     73% 0 in 0 W/m2
00:29 33.1 °F 25.5 °F 30.1 in Calm   2 mph 73.4% 0 in 0 W/m2
00:34 33.1 °F 25.3 °F 30.1 in NE 1.1 mph 2.3 mph 73% 0 in 0 W/m2
00:39 33.1 °F 25.3 °F 30.1 in NE 1 mph 2.3 mph 73% 0 in 0 W/m2
00:44 32.7 °F 25 °F 30.1 in NE 0.8 mph 2 mph 73.4% 0 in 0 W/m2
00:49 32.4 °F 25 °F 30.1 in NE 0.9 mph 2.3 mph 74% 0 in 0 W/m2
00:54 32.4 °F 25 °F 30.1 in NNE 1.2 mph 2.3 mph 74.2% 0 in 0 W/m2
00:59 32.4 °F 25 °F 30.1 in NNE 1.4 mph 2.3 mph 74% 0 in 0 W/m2
01:04 32.2 °F 24.8 °F 30.1 in NNE 1 mph 2.3 mph 74% 0 in 0 W/m2
01:09 32 °F 25 °F 30.1 in NNE 0.9 mph 2.3 mph 74.8% 0 in 0 W/m2
01:14 31.8 °F 25 °F 30.1 in NNE 1 mph 2.3 mph 75.2% 0 in 0 W/m2
01:19 32 °F 25 °F 30.1 in NNE 1 mph 2.3 mph 75% 0 in 0 W/m2
01:24 32 °F 25 °F 30.1 in NNE 1.1 mph 2.3 mph 75% 0 in 0 W/m2
01:29 32.2 °F 25.2 °F 30.1 in NNE 1.2 mph 2.3 mph 75.1% 0 in 0 W/m2
01:34 32.2 °F 25.3 °F 30.1 in NNE 1.6 mph 2.3 mph 75.6% 0 in 0 W/m2
01:39 32.2 °F 25.5 °F 30.1 in NE 1.7 mph 2.3 mph 76.4% 0 in 0 W/m2
01:44 32.2 °F 25.9 °F 30.1 in NE 1.5 mph 2.3 mph 77% 0 in 0 W/m2
01:49 32.2 °F 25.7 °F 30.1 in NE 1.1 mph 2.3 mph 76.8% 0 in 0 W/m2
01:54 32 °F 25.7 °F 30.1 in NE 0.7 mph 2.3 mph 77% 0 in 0 W/m2
01:59 32 °F 25.5 °F 30.1 in Calm   2 mph 77% 0 in 0 W/m2
02:04 31.6 °F 25.3 °F 30.1 in Calm     77% 0 in 0 W/m2
02:09 31.6 °F 25.2 °F 30.1 in Calm     77% 0 in 0 W/m2
02:14 31.6 °F 25.2 °F 30.1 in Calm     77% 0 in 0 W/m2
02:19 31.6 °F 25.2 °F 30.1 in North 1.2 mph 3.5 mph 77% 0 in 0 W/m2
02:24 31.5 °F 25.2 °F 30.1 in North 1.7 mph 3.5 mph 77.1% 0 in 0 W/m2
02:29 31.3 °F 25.2 °F 30.1 in North 1.3 mph 3 mph 78% 0 in 0 W/m2
02:34 31.1 °F 25 °F 30.1 in North 2.2 mph 3.5 mph 77.8% 0 in 0 W/m2
02:39 31.1 °F 25 °F 30.1 in North 1.9 mph 3.5 mph 78% 0 in 0 W/m2
02:44 30.9 °F 24.8 °F 30.1 in North 1.6 mph 3 mph 78% 0 in 0 W/m2
02:49 30.7 °F 24.6 °F 30.1 in North 1.3 mph 2.3 mph 78% 0 in 0 W/m2
02:54 30.6 °F 24.6 °F 30.1 in North 1.1 mph 2.3 mph 78% 0 in 0 W/m2
02:59 30.4 °F 24.4 °F 30.1 in North 1.5 mph 2.3 mph 78% 0 in 0 W/m2
03:04 30.4 °F 24.3 °F 30.1 in North 1.9 mph 3.5 mph 78% 0 in 0 W/m2
03:09 30.2 °F 24.3 °F 30.1 in North 1.9 mph 3.5 mph 78% 0 in 0 W/m2
03:14 30.2 °F 24.3 °F 30.1 in North 2.1 mph 3.5 mph 78.2% 0 in 0 W/m2
03:19 30.2 °F 24.4 °F 30.1 in NNE 2.1 mph 3.5 mph 79% 0 in 0 W/m2
03:24 30.2 °F 24.4 °F 30.1 in NNE 2.5 mph 4 mph 79% 0 in 0 W/m2
03:29 30.2 °F 24.3 °F 30.1 in North 2.3 mph 4 mph 78.7% 0 in 0 W/m2
03:34 30.2 °F 24.4 °F 30.1 in North 2.1 mph 3.5 mph 78.8% 0 in 0 W/m2
03:39 29.7 °F 24.1 °F 30.1 in North 0.9 mph 3 mph 79.3% 0 in 0 W/m2
03:44 29.5 °F 24.1 °F 30.1 in North 0.6 mph 2 mph 80% 0 in 0 W/m2
03:49 29.7 °F 24.3 °F 30.1 in North 0.9 mph 2.3 mph 80% 0 in 0 W/m2
03:54 29.5 °F 24.1 °F 30.1 in North 1.2 mph 2.3 mph 79.8% 0 in 0 W/m2
03:59 29.5 °F 24.1 °F 30.1 in North 1.5 mph 3 mph 80% 0 in 0 W/m2
04:04 29.7 °F 24.3 °F 30.1 in NNE 1.9 mph 3.5 mph 80% 0 in 0 W/m2
04:09 29.8 °F 24.4 °F 30.1 in NNE 1.3 mph 3 mph 79.8% 0 in 0 W/m2
04:14 30 °F 24.3 °F 30.1 in NNE 1.3 mph 2.3 mph 79% 0 in 0 W/m2
04:19 29.8 °F 24.1 °F 30.1 in North 1.4 mph 2.3 mph 79% 0 in 0 W/m2
04:24 29.3 °F 23.7 °F 30.1 in North 1.4 mph 2.3 mph 79% 0 in 0 W/m2
04:29 28.8 °F 23.4 °F 30.1 in NNW 1.4 mph 2.3 mph 79.7% 0 in 0 W/m2
04:34 28.2 °F 23 °F 30.1 in NNW 1.5 mph 2.3 mph 80.2% 0 in 0 W/m2
04:39 28.2 °F 23.2 °F 30.1 in NNW 1.3 mph 2.3 mph 81% 0 in 0 W/m2
04:44 28.4 °F 23.2 °F 30.1 in NNW 1.1 mph 2.3 mph 80.4% 0 in 0 W/m2
04:49 28.4 °F 23 °F 30.1 in NNW 1.4 mph 2.3 mph 80.4% 0 in 0 W/m2
04:54 28.2 °F 23 °F 30.1 in NW 1.2 mph 2.3 mph 80.4% 0 in 0 W/m2
04:59 28 °F 22.8 °F 30.1 in NW 1.4 mph 2.3 mph 80.9% 0 in 0 W/m2
05:04 27.9 °F 22.8 °F 30.1 in NW 1.4 mph 2.3 mph 81% 0 in 0 W/m2
05:09 27.9 °F 22.6 °F 30.1 in NW 1.4 mph 2.3 mph 81% 0 in 0 W/m2
05:14 28 °F 23 °F 30.1 in NW 1.4 mph 2.3 mph 81% 0 in 0 W/m2
05:19 28.2 °F 23 °F 30.1 in NW 1.3 mph 2.3 mph 81% 0 in 0 W/m2
05:24 28 °F 23 °F 30.1 in NW 0.9 mph 2.3 mph 81% 0 in 0 W/m2
05:29 28 °F 22.8 °F 30.1 in WNW 1.1 mph 3 mph 80.5% 0 in 0 W/m2
05:34 27.7 °F 22.5 °F 30.1 in SW 2.5 mph 4 mph 80.6% 0 in 0 W/m2
05:39 27.7 °F 22.8 °F 30.1 in SW 1.2 mph 4 mph 81.5% 0 in 0 W/m2
05:44 28 °F 23 °F 30.1 in SW 1.7 mph 3.5 mph 81% 0 in 0 W/m2
05:49 28 °F 23 °F 30.1 in SW 2.4 mph 4 mph 81% 0 in 0 W/m2
05:54 28 °F 23 °F 30.1 in SW 1.2 mph 4 mph 81% 0 in 0 W/m2
05:59 28.2 °F 23.2 °F 30.1 in SW 1.7 mph 3.5 mph 81% 0 in 0 W/m2
06:04 27.9 °F 22.8 °F 30.1 in SW 1.6 mph 3.5 mph 80.8% 0 in 0 W/m2
06:09 27.1 °F 22.1 °F 30.1 in WSW 2.7 mph 6 mph 81% 0 in 0 W/m2
06:14 26.6 °F 21.7 °F 30.1 in WSW 4.9 mph 7 mph 81.7% 0 in 0 W/m2
06:19 26.8 °F 22.3 °F 30.1 in WSW 3.9 mph 6.9 mph 83.4% 0 in 0 W/m2
06:24 26.6 °F 21.7 °F 30.1 in WSW 3.9 mph 7 mph 82% 0 in 0 W/m2
06:29 26.4 °F 21.7 °F 30.1 in West 3.2 mph 5 mph 82.4% 0 in 0 W/m2
06:34 26.4 °F 21.9 °F 30.1 in West 2.2 mph 5 mph 83% 0 in 0 W/m2
06:39 26.4 °F 21.9 °F 30.1 in WSW 2.5 mph 4 mph 82.7% 0 in 0 W/m2
06:44 26.2 °F 21.7 °F 30.1 in WSW 2.2 mph 4 mph 83% 0 in 0 W/m2
06:49 26.2 °F 21.7 °F 30.1 in West 1.9 mph 3.5 mph 83% 0 in 5 W/m2
06:54 26.4 °F 21.9 °F 30.1 in West 1.4 mph 3 mph 83% 0 in 9 W/m2
06:59 26.4 °F 21.9 °F 30.1 in West 1.9 mph 3.5 mph 83% 0 in 12 W/m2
07:04 26.4 °F 21.9 °F 30.1 in West 1.8 mph 3.5 mph 83% 0 in 18 W/m2
07:09 26.6 °F 22.1 °F 30.1 in West 1.6 mph 3.5 mph 83% 0 in 21 W/m2
07:14 27 °F 22.5 °F 30.1 in West 1.5 mph 3.5 mph 83% 0 in 26 W/m2
07:19 27 °F 22.5 °F 30.1 in West 2.4 mph 4 mph 83% 0 in 33 W/m2
07:24 27.3 °F 22.8 °F 30.1 in WSW 1.9 mph 4 mph 83% 0 in 40 W/m2
07:29 27.7 °F 22.8 °F 30.1 in WSW 2.2 mph 3.5 mph 82.1% 0 in 49 W/m2
07:34 28 °F 23.2 °F 30.1 in WSW 2 mph 3.5 mph 82% 0 in 58 W/m2
07:39 28.6 °F 23.7 °F 30.1 in WSW 1.8 mph 3.5 mph 82% 0 in 67 W/m2
07:44 29.5 °F 24.3 °F 30.1 in SW 1.8 mph 3.5 mph 80.6% 0 in 77 W/m2
07:49 30 °F 24.6 °F 30.1 in WSW 1.5 mph 3 mph 79.7% 0 in 90 W/m2
07:54 30.7 °F 24.8 °F 30.1 in SW 1.2 mph 2.3 mph 78.7% 0 in 102 W/m2
07:59 31.3 °F 25.2 °F 30.1 in SW 0.6 mph 2.3 mph 78.1% 0 in 118 W/m2
08:04 31.6 °F 25.3 °F 30.1 in SSW 0.4 mph 1.2 mph 77.5% 0 in 130 W/m2
08:09 32 °F 25.5 °F 30.1 in SW 0.2 mph 2 mph 76.4% 0 in 142 W/m2
08:14 32.5 °F 25.7 °F 30.1 in SW 0.9 mph 2.3 mph 75.2% 0 in 156 W/m2
08:19 33.1 °F 25.9 °F 30.1 in SW 0.2 mph 2 mph 74.8% 0 in 172 W/m2
08:24 33.4 °F 26.2 °F 30.1 in West 0.6 mph 2.3 mph 74.6% 0 in 188 W/m2
08:29 34.2 °F 26.6 °F 30.1 in West 2 mph 4 mph 74% 0 in 200 W/m2
08:34 34.5 °F 27 °F 30.1 in West 1.9 mph 4 mph 73.8% 0 in 211 W/m2
08:39 35.1 °F 27.7 °F 30.1 in West 1.6 mph 3.5 mph 74% 0 in 225 W/m2
08:44 35.6 °F 27.7 °F 30.1 in West 1.7 mph 3.5 mph 72.4% 0 in 237 W/m2
08:49 36.1 °F 27.9 °F 30.1 in WNW 1.6 mph 3.5 mph 71.8% 0 in 250 W/m2
08:54 36.7 °F 28.2 °F 30.1 in WNW 1.9 mph 3.5 mph 71.1% 0 in 262 W/m2
08:59 37.2 °F 28.9 °F 30.1 in West 1.4 mph 3.5 mph 71.5% 0 in 276 W/m2
09:04 37.9 °F 29.3 °F 30.1 in WNW 1.1 mph 3 mph 70.8% 0 in 290 W/m2
09:09 38.5 °F 29.8 °F 30.1 in WNW 1.4 mph 3.5 mph 70.7% 0 in 302 W/m2
09:14 39 °F 30.2 °F 30.1 in WNW 0.6 mph 3 mph 70.3% 0 in 315 W/m2
09:19 39.7 °F 30.9 °F 30.1 in Calm   2 mph 70.4% 0 in 325 W/m2
09:24 40.3 °F 30.9 °F 30.1 in Calm     69.2% 0 in 339 W/m2
09:29 40.6 °F 30.7 °F 30.1 in WNW 0.5 mph 3 mph 67.4% 0 in 352 W/m2
09:34 40.8 °F 30.6 °F 30.1 in West 1.3 mph 3.5 mph 66.2% 0 in 364 W/m2
09:39 40.8 °F 30.9 °F 30.1 in WSW 2.2 mph 3.5 mph 67.4% 0 in 376 W/m2
09:44 41.2 °F 30.9 °F 30.1 in WSW 1.8 mph 3.5 mph 66.9% 0 in 387 W/m2
09:49 41.7 °F 30.9 °F 30.1 in WNW 1.3 mph 3.5 mph 65.4% 0 in 399 W/m2
09:54 42.3 °F 30.9 °F 30.1 in North 1.2 mph 4 mph 63.7% 0 in 410 W/m2
09:59 42.6 °F 30.7 °F 30.1 in South 1.6 mph 4 mph 62.6% 0 in 418 W/m2
10:04 43 °F 30.9 °F 30.1 in SE 1.1 mph 3.5 mph 61.9% 0 in 434 W/m2
10:09 43.5 °F 29.1 °F 30.1 in ESE 3.2 mph 7 mph 56.5% 0 in 443 W/m2
10:14 43.7 °F 28.9 °F 30.1 in SE 4 mph 7 mph 55.8% 0 in 455 W/m2
10:19 44.2 °F 28.4 °F 30.1 in East 4.2 mph 8.1 mph 53.5% 0 in 462 W/m2
10:24 44.6 °F 28.9 °F 30.1 in ESE 2.4 mph 8 mph 54.1% 0 in 473 W/m2
10:29 44.6 °F 28.4 °F 30.1 in ESE 2.8 mph 6 mph 52.8% 0 in 485 W/m2
10:34 44.4 °F 28.4 °F 30.1 in SSE 1.5 mph 6 mph 52.9% 0 in 496 W/m2
10:39 44.8 °F 29.3 °F 30.1 in ESE 2.3 mph 5 mph 54.4% 0 in 506 W/m2
10:44 45.3 °F 29.1 °F 30.1 in ESE 2.1 mph 7 mph 53% 0 in 513 W/m2
10:49 45.5 °F 28.8 °F 30.1 in ENE 1.7 mph 7 mph 52% 0 in 522 W/m2
10:54 46 °F 28.6 °F 30.1 in NE 3 mph 6 mph 50.1% 0 in 531 W/m2
10:59 46.4 °F 28.8 °F 30.1 in NE 4 mph 7 mph 50.1% 0 in 538 W/m2
11:04 46.6 °F 29.1 °F 30.1 in NNE 2.4 mph 7 mph 50.4% 0 in 545 W/m2
11:09 46.9 °F 29.5 °F 30.1 in ENE 3.9 mph 7 mph 50.5% 0 in 552 W/m2
11:14 47.3 °F 30.2 °F 30.1 in East 3.4 mph 7 mph 51.4% 0 in 557 W/m2
11:19 46.8 °F 29.7 °F 30.1 in SSW 2.6 mph 7 mph 51.3% 0 in 566 W/m2
11:24 46.8 °F 30 °F 30.1 in West 4.3 mph 8.1 mph 51.9% 0 in 570 W/m2
11:29 46.8 °F 29.8 °F 30.1 in WNW 5 mph 8.1 mph 51.6% 0 in 573 W/m2
11:34 47.5 °F 30.6 °F 30.1 in WSW 3.4 mph 8 mph 51.9% 0 in 582 W/m2
11:39 47.8 °F 30.7 °F 30.1 in SSW 5.4 mph 10.4 mph 51.7% 0 in 592 W/m2
11:44 47.3 °F 30.4 °F 30.1 in SSW 5.4 mph 10.4 mph 51.7% 0 in 592 W/m2
11:49 47.3 °F 30.4 °F 30.1 in SW 3.4 mph 10 mph 51.9% 0 in 594 W/m2
11:54 47.1 °F 30 °F 30.1 in East 3.2 mph 8.1 mph 51.4% 0 in 596 W/m2
11:59 47.3 °F 30.7 °F 30.1 in ESE 3 mph 8 mph 52.4% 0 in 599 W/m2
12:04 47.1 °F 30.6 °F 30.1 in SSW 1.7 mph 7 mph 52.4% 0 in 605 W/m2
12:09 47.7 °F 30.4 °F 30.1 in WSW 5 mph 9.2 mph 51.3% 0 in 605 W/m2
12:14 48.4 °F 31.1 °F 30.1 in SW 4.3 mph 9.2 mph 51.3% 0 in 605 W/m2
12:19 48.6 °F 30.7 °F 30.1 in SW 5 mph 9.2 mph 49.8% 0 in 606 W/m2
12:24 48.4 °F 30.2 °F 30.1 in WNW 1.9 mph 9 mph 49.3% 0 in 610 W/m2
12:29 48 °F 29.7 °F 30.1 in West 3.6 mph 8.1 mph 48.6% 0 in 612 W/m2
12:34 48.2 °F 29.8 °F 30.1 in West 4.6 mph 9.2 mph 48.7% 0 in 613 W/m2
12:39 48.4 °F 29.8 °F 30.1 in WSW 5.4 mph 10.4 mph 48.4% 0 in 613 W/m2
12:44 48.2 °F 29.7 °F 30.1 in NW 2.4 mph 10 mph 48.2% 0 in 612 W/m2
12:49 48.9 °F 29.7 °F 30.1 in NW 2.7 mph 6 mph 47.3% 0 in 621 W/m2
12:54 49.1 °F 30 °F 30.1 in West 4.3 mph 10.4 mph 47.7% 0 in 624 W/m2
12:59 49.1 °F 30.2 °F 30.1 in West 5.1 mph 10.4 mph 48% 0 in 615 W/m2
13:04 48.9 °F 29.8 °F 30.1 in WSW 4.5 mph 10 mph 47.6% 0 in 615 W/m2
13:09 48.7 °F 29.7 °F 30.1 in SW 3.4 mph 7 mph 47.6% 0 in 606 W/m2
13:14 48.4 °F 29.5 °F 30.1 in SSE 1.7 mph 6 mph 47.5% 0 in 599 W/m2
13:19 48.9 °F 29.7 °F 30.1 in WSW 3.5 mph 10.4 mph 47.4% 0 in 601 W/m2
13:24 49.6 °F 30.2 °F 30.1 in WSW 4.3 mph 10.4 mph 46.9% 0 in 599 W/m2
13:29 49.6 °F 30.4 °F 30.1 in WSW 2.6 mph 9 mph 47.5% 0 in 594 W/m2
13:34 49.3 °F 30.4 °F 30.1 in SSW 5 mph 11 mph 47.7% 0 in 584 W/m2
13:39 49.1 °F 30.4 °F 30.1 in SW 4.9 mph 12 mph 48.3% 0 in 589 W/m2
13:44 49.8 °F 30.7 °F 30.1 in WNW 6 mph 12 mph 47.6% 0 in 580 W/m2
13:49 50 °F 30.6 °F 30.1 in West 4.6 mph 10 mph 47% 0 in 571 W/m2
13:54 49.6 °F 30.6 °F 30.1 in SSE 3.9 mph 9 mph 47.5% 0 in 571 W/m2
13:59 49.8 °F 30.7 °F 30.1 in SSW 2.5 mph 6 mph 47.7% 0 in 568 W/m2
14:04 50.4 °F 31.1 °F 30.1 in West 3.5 mph 6 mph 47.5% 0 in 559 W/m2
14:09 50.4 °F 31.5 °F 30.1 in NW 2.4 mph 6 mph 48.1% 0 in 559 W/m2
14:14 50.5 °F 30.7 °F 30.1 in West 4.2 mph 8.1 mph 46.7% 0 in 548 W/m2
14:19 50.2 °F 30.6 °F 30.1 in WNW 2.9 mph 8.1 mph 46.7% 0 in 545 W/m2
14:24 50.2 °F 30.7 °F 30.1 in WSW 4.2 mph 9.2 mph 47% 0 in 527 W/m2
14:29 50.2 °F 30.9 °F 30.1 in WSW 4.3 mph 9 mph 47.2% 0 in 520 W/m2
14:34 50.7 °F 30.6 °F 30.1 in West 4.6 mph 9.2 mph 45.9% 0 in 517 W/m2
14:39 50.4 °F 30.2 °F 30.1 in WSW 4.7 mph 9 mph 45.8% 0 in 503 W/m2
14:44 50.2 °F 30.2 °F 30.1 in West 3.5 mph 7 mph 46% 0 in 496 W/m2
14:49 50.2 °F 30.6 °F 30.1 in WSW 2.7 mph 7 mph 46.6% 0 in 489 W/m2
14:54 50 °F 30.4 °F 30 in SSE 2.1 mph 4 mph 46.8% 0 in 480 W/m2
14:59 50.2 °F 30.7 °F 30 in NE 1.9 mph 4 mph 47% 0 in 473 W/m2
15:04 50.7 °F 30.7 °F 30 in WSW 2 mph 7 mph 46.1% 0 in 464 W/m2
15:09 51.3 °F 31.1 °F 30 in West 5.6 mph 11.5 mph 45.8% 0 in 454 W/m2
15:14 51.1 °F 30.2 °F 30 in WNW 3.5 mph 6.9 mph 44.6% 0 in 443 W/m2
15:19 51.3 °F 30.7 °F 30 in WSW 4.3 mph 8.1 mph 45.2% 0 in 431 W/m2
15:24 51.4 °F 30.7 °F 30 in WSW 5.3 mph 10.4 mph 45.1% 0 in 420 W/m2
15:29 51.3 °F 30.6 °F 30 in WSW 4.2 mph 10 mph 44.8% 0 in 408 W/m2
15:34 50.5 °F 30.2 °F 30 in SW 2.3 mph 7 mph 45.5% 0 in 390 W/m2
15:39 50.5 °F 30.2 °F 30 in West 4.5 mph 8.1 mph 45.4% 0 in 380 W/m2
15:44 50.7 °F 30 °F 30 in West 3.7 mph 8 mph 44.9% 0 in 366 W/m2
15:49 50.7 °F 30.6 °F 30 in SW 3.9 mph 7 mph 45.8% 0 in 352 W/m2
15:54 50.5 °F 30.2 °F 30 in SSW 2.5 mph 7 mph 45.6% 0 in 343 W/m2
15:59 50.4 °F 30.6 °F 30 in SW 1.2 mph 5 mph 46.2% 0 in 330 W/m2
16:04 50.9 °F 30.6 °F 30 in WSW 3 mph 8.1 mph 45.6% 0 in 320 W/m2
16:09 50.9 °F 30.6 °F 30 in WNW 5 mph 8.1 mph 45.6% 0 in 306 W/m2
16:14 50.7 °F 30.4 °F 30 in West 3.5 mph 8 mph 45.5% 0 in 292 W/m2
16:19 50.9 °F 30.6 °F 30 in WNW 2.6 mph 6 mph 45.4% 0 in 278 W/m2
16:24 51.1 °F 30.4 °F 30 in SW 3.4 mph 6 mph 44.7% 0 in 262 W/m2
16:29 50.9 °F 30.2 °F 30 in SW 3.2 mph 6 mph 44.9% 0 in 248 W/m2
16:34 50.7 °F 30.2 °F 30 in West 4.7 mph 7 mph 45.1% 0 in 236 W/m2
16:39 50.5 °F 30 °F 30 in WSW 4 mph 7 mph 45.1% 0 in 220 W/m2
16:44 50.4 °F 30 °F 30 in West 3.8 mph 6 mph 45.2% 0 in 204 W/m2
16:49 50.2 °F 29.7 °F 30 in SW 2.5 mph 6 mph 44.8% 0 in 192 W/m2
16:54 50.2 °F 30 °F 30 in WSW 2.7 mph 5 mph 45.8% 0 in 176 W/m2
16:59 50.4 °F 29.8 °F 30 in WSW 3.3 mph 5 mph 45% 0 in 162 W/m2
17:04 50 °F 29.7 °F 30 in WSW 2.9 mph 5 mph 45.3% 0 in 146 W/m2
17:09 50 °F 30 °F 30 in WSW 2.9 mph 5 mph 46% 0 in 130 W/m2
17:14 50.2 °F 30.2 °F 30 in WSW 3 mph 5 mph 46% 0 in 114 W/m2
17:19 49.8 °F 30 °F 30 in SW 1.6 mph 5 mph 46.2% 0 in 97 W/m2
17:24 49.6 °F 29.8 °F 30 in SW 1.6 mph 3.5 mph 46.2% 0 in 86 W/m2
17:29 49.6 °F 29.8 °F 30 in WSW 1.5 mph 4 mph 46.4% 0 in 74 W/m2
17:34 49.6 °F 30.2 °F 30 in WSW 2.2 mph 4 mph 46.9% 0 in 62 W/m2
17:39 49.5 °F 30.2 °F 30 in SW 1.6 mph 4 mph 47.2% 0 in 49 W/m2
17:44 49.3 °F 29.8 °F 30 in SW 1.6 mph 3.5 mph 46.8% 0 in 39 W/m2
17:49 49.1 °F 29.8 °F 30 in SW 0.7 mph 3 mph 47.2% 0 in 26 W/m2
17:54 48.7 °F 29.8 °F 30 in SW 1.3 mph 2.3 mph 47.7% 0 in 21 W/m2
17:59 48.4 °F 30 °F 30 in SSW 1.6 mph 4 mph 48.8% 0 in 18 W/m2
18:04 48 °F 29.8 °F 30 in SSW 1.7 mph 4 mph 49% 0 in 12 W/m2
18:09 48 °F 29.7 °F 30 in SSW 2.1 mph 3.5 mph 49.2% 0 in 9 W/m2
18:14 47.7 °F 30 °F 30 in SSW 1.8 mph 3.5 mph 50.4% 0 in 5 W/m2
18:19 46.9 °F 30 °F 30 in SSW 0.8 mph 3 mph 51.4% 0 in 0 W/m2
18:24 46 °F 30.2 °F 30 in SSW 0.2 mph 2 mph 53.6% 0 in 0 W/m2
18:29 45.7 °F 30.2 °F 30 in SSW 0.4 mph 1.2 mph 54.5% 0 in 0 W/m2
18:34 45 °F 29.8 °F 30 in South 0.6 mph 2.3 mph 55.3% 0 in 0 W/m2
18:39 44.4 °F 30 °F 30 in South 0.5 mph 2 mph 56.8% 0 in 0 W/m2
18:44 44.2 °F 30 °F 30 in South 0.5 mph 2.3 mph 57.2% 0 in 0 W/m2
18:49 43.9 °F 29.7 °F 30.1 in South 0.6 mph 2.3 mph 57.2% 0 in 0 W/m2
18:54 43.3 °F 29.3 °F 30.1 in SSE 1.2 mph 2.3 mph 57.5% 0 in 0 W/m2
18:59 43.3 °F 29.5 °F 30.1 in SE 1.3 mph 3.5 mph 58% 0 in 0 W/m2
19:04 43 °F 29.3 °F 30.1 in SE 0.5 mph 3 mph 58% 0 in 0 W/m2
19:09 43 °F 29.5 °F 30.1 in SE 0.6 mph 2.3 mph 58.8% 0 in 0 W/m2
19:14 43 °F 29.7 °F 30 in SE 0.6 mph 2.3 mph 59% 0 in 0 W/m2
19:19 43 °F 29.8 °F 30.1 in SE 0.2 mph 1.2 mph 59.5% 0 in 0 W/m2
19:24 42.6 °F 29.5 °F 30.1 in SE 0.2 mph 2 mph 59.4% 0 in 0 W/m2
19:29 42.4 °F 29.7 °F 30.1 in SSE 1.1 mph 2.3 mph 60.5% 0 in 0 W/m2
19:34 42.3 °F 29.8 °F 30.1 in SSE 1.1 mph 2.3 mph 61.3% 0 in 0 W/m2
19:39 42.3 °F 29.8 °F 30.1 in SSE 1 mph 2.3 mph 61.4% 0 in 0 W/m2
19:44 42.3 °F 29.7 °F 30.1 in South 1.1 mph 3.5 mph 61% 0 in 0 W/m2
19:49 42.3 °F 29.5 °F 30.1 in South 1.1 mph 3 mph 60.2% 0 in 0 W/m2
19:54 41.9 °F 29.7 °F 30.1 in SSE 0.7 mph 2.3 mph 61.6% 0 in 0 W/m2
19:59 41.4 °F 29.7 °F 30.1 in SSE 0.6 mph 2.3 mph 62.8% 0 in 0 W/m2
20:04 41 °F 29.1 °F 30.1 in SSE 0.7 mph 2.3 mph 62.2% 0 in 0 W/m2
20:09 41 °F 29.3 °F 30.1 in SSE 0.2 mph 2 mph 63.1% 0 in 0 W/m2
20:14 40.6 °F 29.3 °F 30.1 in SSE 0.9 mph 2.3 mph 63.4% 0 in 0 W/m2
20:19 40.5 °F 29.3 °F 30.1 in SSE 1 mph 2.3 mph 64.1% 0 in 0 W/m2
20:24 40.3 °F 29.1 °F 30.1 in SSE 1.1 mph 2.3 mph 64.1% 0 in 0 W/m2
20:29 40.1 °F 28.9 °F 30.1 in SSE 1.2 mph 2.3 mph 63.9% 0 in 0 W/m2
20:34 39.7 °F 28.8 °F 30.1 in SSE 1.5 mph 2.3 mph 64.5% 0 in 0 W/m2
20:39 39.4 °F 28.4 °F 30.1 in SE 1.7 mph 2.3 mph 64.3% 0 in 0 W/m2
20:44 39.2 °F 28.6 °F 30.1 in ESE 1.7 mph 2.3 mph 65.4% 0 in 0 W/m2
20:49 39.2 °F 28.8 °F 30.1 in East 1.8 mph 3.5 mph 66% 0 in 0 W/m2
20:54 38.8 °F 28.9 °F 30.1 in East 2.2 mph 3.5 mph 67.1% 0 in 0 W/m2
20:59 38.7 °F 29.1 °F 30.1 in East 2.5 mph 3.5 mph 68.5% 0 in 0 W/m2
21:04 38.7 °F 29.8 °F 30.1 in East 2.6 mph 3.5 mph 70.3% 0 in 0 W/m2
21:09 38.5 °F 30 °F 30.1 in ENE 2.3 mph 3.5 mph 71% 0 in 0 W/m2
21:14 38.7 °F 30 °F 30.1 in ENE 2.2 mph 3.5 mph 71% 0 in 0 W/m2
21:19 38.7 °F 30 °F 30.1 in ENE 2.1 mph 3.5 mph 71.2% 0 in 0 W/m2
21:24 38.3 °F 30 °F 30.1 in ENE 1.8 mph 3 mph 72% 0 in 0 W/m2
21:29 38.1 °F 29.8 °F 30.1 in East 2 mph 3.5 mph 71.8% 0 in 0 W/m2
21:34 37.9 °F 29.8 °F 30.1 in East 2.6 mph 5 mph 72% 0 in 0 W/m2
21:39 38.5 °F 29.8 °F 30.1 in East 3 mph 5 mph 71.2% 0 in 0 W/m2
21:44 38.5 °F 29.8 °F 30.1 in East 2.7 mph 5 mph 71% 0 in 0 W/m2
21:49 38.7 °F 29.8 °F 30.1 in East 2.9 mph 6 mph 70.4% 0 in 0 W/m2
21:54 38.7 °F 29.8 °F 30.1 in East 2.5 mph 6 mph 70% 0 in 0 W/m2
21:59 38.7 °F 29.8 °F 30.1 in East 2.5 mph 5 mph 70.3% 0 in 0 W/m2
22:04 39 °F 30 °F 30.1 in East 2.6 mph 5 mph 70% 0 in 0 W/m2
22:09 38.7 °F 30 °F 30.1 in ENE 2.4 mph 5 mph 70.5% 0 in 0 W/m2
22:14 38.3 °F 29.8 °F 30.1 in ENE 1.9 mph 3.5 mph 71.5% 0 in 0 W/m2
22:19 37.9 °F 29.8 °F 30.1 in ENE 1.6 mph 3.5 mph 72.3% 0 in 0 W/m2
22:24 37.6 °F 29.8 °F 30.1 in ENE 2.1 mph 3.5 mph 73.6% 0 in 0 W/m2
22:29 37.8 °F 30 °F 30.1 in East 2.4 mph 3.5 mph 73.6% 0 in 0 W/m2
22:34 37.4 °F 30.4 °F 30.1 in ENE 3.2 mph 5 mph 75.6% 0 in 0 W/m2
22:39 36.9 °F 30.2 °F 30.1 in ENE 5.2 mph 9.2 mph 76.6% 0 in 0 W/m2
22:44 37.2 °F 29.3 °F 30.1 in East 4.4 mph 9 mph 72.8% 0 in 0 W/m2
22:49 37.6 °F 29.1 °F 30.1 in ENE 4.3 mph 8 mph 71% 0 in 0 W/m2
22:54 37.4 °F 28.6 °F 30.1 in East 4.3 mph 7 mph 70.2% 0 in 0 W/m2
22:59 37.4 °F 28.4 °F 30.1 in ENE 3.5 mph 7 mph 70% 0 in 0 W/m2
23:04 36.9 °F 28.4 °F 30.1 in ENE 2.9 mph 5 mph 70.9% 0 in 0 W/m2
23:09 36.7 °F 28.2 °F 30.1 in ENE 3.6 mph 7 mph 71% 0 in 0 W/m2
23:14 36.7 °F 28.4 °F 30.1 in ENE 4 mph 7 mph 71.8% 0 in 0 W/m2
23:19 36.5 °F 28.4 °F 30.1 in ENE 3.4 mph 7 mph 72% 0 in 0 W/m2
23:24 36.3 °F 28.4 °F 30.1 in ENE 5.7 mph 9.2 mph 72.8% 0 in 0 W/m2
23:29 36.1 °F 28.4 °F 30.1 in ENE 5.7 mph 9.2 mph 73% 0 in 0 W/m2
23:34 36 °F 28.2 °F 30.2 in ENE 5.3 mph 10.4 mph 73% 0 in 0 W/m2
23:39 35.6 °F 28 °F 30.2 in ENE 7.3 mph 11.5 mph 73.7% 0 in 0 W/m2
23:44 35.2 °F 28 °F 30.2 in ENE 7.5 mph 12 mph 74.9% 0 in 0 W/m2
23:49 34.9 °F 28 °F 30.2 in ENE 7.3 mph 12 mph 75.9% 0 in 0 W/m2
23:54 34.5 °F 28 °F 30.2 in ENE 7.9 mph 12 mph 76.8% 0 in 0 W/m2
23:59 34.5 °F 28 °F 30.2 in ENE 7.4 mph 12 mph 77.4% 0 in 0 W/m2
Stazione Meteorologica MeteoMincio Rivalta s/M (MN)
Con i complimenti di Weather Underground - 4 mb


METEO PILLOLE
Maggior quantità di pioggia caduta in un ora
Holt (263.11 m), Missouri - USA
il 22 giugno 1947 caddero 305mm.

Do NOT follow this link or you will be banned from the site!